sensor_id;sensor_type;location;lat;lon;timestamp;temperature;humidity
6581;DHT22;3324;50.796;7.228;2023-12-20T00:01:31;8.40;99.90
6581;DHT22;3324;50.796;7.228;2023-12-20T00:03:57;8.40;99.90
6581;DHT22;3324;50.796;7.228;2023-12-20T00:06:22;8.40;99.90
6581;DHT22;3324;50.796;7.228;2023-12-20T00:08:48;8.40;99.90
6581;DHT22;3324;50.796;7.228;2023-12-20T00:11:13;8.50;99.90
6581;DHT22;3324;50.796;7.228;2023-12-20T00:13:39;8.40;99.90
6581;DHT22;3324;50.796;7.228;2023-12-20T00:16:04;8.40;99.90
6581;DHT22;3324;50.796;7.228;2023-12-20T00:18:30;8.50;99.90
6581;DHT22;3324;50.796;7.228;2023-12-20T00:20:55;8.40;99.90
6581;DHT22;3324;50.796;7.228;2023-12-20T00:23:20;8.30;99.90
6581;DHT22;3324;50.796;7.228;2023-12-20T00:25:48;8.40;99.90
6581;DHT22;3324;50.796;7.228;2023-12-20T00:28:14;8.40;99.90
6581;DHT22;3324;50.796;7.228;2023-12-20T00:30:39;8.40;99.90
6581;DHT22;3324;50.796;7.228;2023-12-20T00:33:04;8.40;99.90
6581;DHT22;3324;50.796;7.228;2023-12-20T00:35:30;8.40;99.90
6581;DHT22;3324;50.796;7.228;2023-12-20T00:37:55;8.40;99.90
6581;DHT22;3324;50.796;7.228;2023-12-20T00:40:21;8.30;99.90
6581;DHT22;3324;50.796;7.228;2023-12-20T00:42:47;8.30;99.90
6581;DHT22;3324;50.796;7.228;2023-12-20T00:45:13;8.30;99.90
6581;DHT22;3324;50.796;7.228;2023-12-20T00:47:39;8.30;99.90
6581;DHT22;3324;50.796;7.228;2023-12-20T00:50:05;8.40;99.90
6581;DHT22;3324;50.796;7.228;2023-12-20T00:52:31;8.40;99.90
6581;DHT22;3324;50.796;7.228;2023-12-20T00:54:56;8.40;99.90
6581;DHT22;3324;50.796;7.228;2023-12-20T00:57:22;8.40;99.90
6581;DHT22;3324;50.796;7.228;2023-12-20T00:59:47;8.30;99.90
6581;DHT22;3324;50.796;7.228;2023-12-20T01:02:12;8.30;99.90
6581;DHT22;3324;50.796;7.228;2023-12-20T01:07:42;8.40;99.90
6581;DHT22;3324;50.796;7.228;2023-12-20T01:10:07;8.50;99.90
6581;DHT22;3324;50.796;7.228;2023-12-20T01:12:33;8.40;99.90
6581;DHT22;3324;50.796;7.228;2023-12-20T01:14:58;8.50;99.90
6581;DHT22;3324;50.796;7.228;2023-12-20T01:17:24;8.40;99.90
6581;DHT22;3324;50.796;7.228;2023-12-20T01:19:49;8.30;99.90
6581;DHT22;3324;50.796;7.228;2023-12-20T01:22:15;8.30;99.90
6581;DHT22;3324;50.796;7.228;2023-12-20T01:24:40;8.30;99.90
6581;DHT22;3324;50.796;7.228;2023-12-20T01:27:06;8.30;99.90
6581;DHT22;3324;50.796;7.228;2023-12-20T01:29:31;8.30;99.90
6581;DHT22;3324;50.796;7.228;2023-12-20T01:31:57;8.30;99.90
6581;DHT22;3324;50.796;7.228;2023-12-20T01:34:22;8.30;99.90
6581;DHT22;3324;50.796;7.228;2023-12-20T01:36:48;8.30;99.90
6581;DHT22;3324;50.796;7.228;2023-12-20T01:39:13;8.30;99.90
6581;DHT22;3324;50.796;7.228;2023-12-20T01:41:39;8.30;99.90
6581;DHT22;3324;50.796;7.228;2023-12-20T01:44:04;8.30;99.90
6581;DHT22;3324;50.796;7.228;2023-12-20T01:46:30;8.40;99.90
6581;DHT22;3324;50.796;7.228;2023-12-20T01:48:55;8.40;99.90
6581;DHT22;3324;50.796;7.228;2023-12-20T01:51:21;8.30;99.90
6581;DHT22;3324;50.796;7.228;2023-12-20T01:53:46;8.30;99.90
6581;DHT22;3324;50.796;7.228;2023-12-20T01:56:12;8.30;99.90
6581;DHT22;3324;50.796;7.228;2023-12-20T01:58:39;8.30;99.90
6581;DHT22;3324;50.796;7.228;2023-12-20T02:01:08;8.30;99.90
6581;DHT22;3324;50.796;7.228;2023-12-20T02:03:34;8.30;99.90
6581;DHT22;3324;50.796;7.228;2023-12-20T02:06:02;8.30;99.90
6581;DHT22;3324;50.796;7.228;2023-12-20T02:08:28;8.30;99.90
6581;DHT22;3324;50.796;7.228;2023-12-20T02:10:54;8.20;99.90
6581;DHT22;3324;50.796;7.228;2023-12-20T02:13:19;8.20;99.90
6581;DHT22;3324;50.796;7.228;2023-12-20T02:15:45;8.30;99.90
6581;DHT22;3324;50.796;7.228;2023-12-20T02:18:10;8.20;99.90
6581;DHT22;3324;50.796;7.228;2023-12-20T02:20:40;8.20;99.90
6581;DHT22;3324;50.796;7.228;2023-12-20T02:23:06;8.20;99.90
6581;DHT22;3324;50.796;7.228;2023-12-20T02:25:31;8.20;99.90
6581;DHT22;3324;50.796;7.228;2023-12-20T02:27:57;8.20;99.90
6581;DHT22;3324;50.796;7.228;2023-12-20T02:30:22;8.10;99.90
6581;DHT22;3324;50.796;7.228;2023-12-20T02:32:49;8.20;99.90
6581;DHT22;3324;50.796;7.228;2023-12-20T02:35:15;8.10;99.90
6581;DHT22;3324;50.796;7.228;2023-12-20T02:37:40;8.10;99.90
6581;DHT22;3324;50.796;7.228;2023-12-20T02:40:06;8.10;99.90
6581;DHT22;3324;50.796;7.228;2023-12-20T02:42:31;8.00;99.90
6581;DHT22;3324;50.796;7.228;2023-12-20T02:44:57;8.00;99.90
6581;DHT22;3324;50.796;7.228;2023-12-20T02:47:22;7.90;99.90
6581;DHT22;3324;50.796;7.228;2023-12-20T02:49:48;7.90;99.90
6581;DHT22;3324;50.796;7.228;2023-12-20T02:52:14;7.80;99.90
6581;DHT22;3324;50.796;7.228;2023-12-20T02:54:39;7.80;99.90
6581;DHT22;3324;50.796;7.228;2023-12-20T02:57:05;7.70;99.90
6581;DHT22;3324;50.796;7.228;2023-12-20T02:59:31;7.70;99.90
6581;DHT22;3324;50.796;7.228;2023-12-20T03:01:56;7.60;99.90
6581;DHT22;3324;50.796;7.228;2023-12-20T03:04:22;7.50;99.90
6581;DHT22;3324;50.796;7.228;2023-12-20T03:06:47;7.50;99.90
6581;DHT22;3324;50.796;7.228;2023-12-20T03:09:12;7.50;99.90
6581;DHT22;3324;50.796;7.228;2023-12-20T03:11:38;7.50;99.90
6581;DHT22;3324;50.796;7.228;2023-12-20T03:14:04;7.40;99.90
6581;DHT22;3324;50.796;7.228;2023-12-20T03:16:29;7.40;99.90
6581;DHT22;3324;50.796;7.228;2023-12-20T03:18:56;7.30;99.90
6581;DHT22;3324;50.796;7.228;2023-12-20T03:21:21;7.30;99.90
6581;DHT22;3324;50.796;7.228;2023-12-20T03:23:47;7.30;99.90
6581;DHT22;3324;50.796;7.228;2023-12-20T03:26:13;7.30;99.90
6581;DHT22;3324;50.796;7.228;2023-12-20T03:28:39;7.30;99.90
6581;DHT22;3324;50.796;7.228;2023-12-20T03:31:05;7.30;99.90
6581;DHT22;3324;50.796;7.228;2023-12-20T03:33:30;7.40;99.90
6581;DHT22;3324;50.796;7.228;2023-12-20T03:35:56;7.40;99.90
6581;DHT22;3324;50.796;7.228;2023-12-20T03:38:21;7.40;99.90
6581;DHT22;3324;50.796;7.228;2023-12-20T03:40:49;7.40;99.90
6581;DHT22;3324;50.796;7.228;2023-12-20T03:43:14;7.50;99.90
6581;DHT22;3324;50.796;7.228;2023-12-20T03:45:40;7.50;99.90
6581;DHT22;3324;50.796;7.228;2023-12-20T03:48:06;7.50;99.90
6581;DHT22;3324;50.796;7.228;2023-12-20T03:50:31;7.50;99.90
6581;DHT22;3324;50.796;7.228;2023-12-20T03:52:58;7.40;99.90
6581;DHT22;3324;50.796;7.228;2023-12-20T03:55:23;7.50;99.90
6581;DHT22;3324;50.796;7.228;2023-12-20T03:57:49;7.50;99.90
6581;DHT22;3324;50.796;7.228;2023-12-20T04:00:14;7.40;99.90
6581;DHT22;3324;50.796;7.228;2023-12-20T04:02:40;7.40;99.90
6581;DHT22;3324;50.796;7.228;2023-12-20T04:05:07;7.50;99.90
6581;DHT22;3324;50.796;7.228;2023-12-20T04:07:32;7.50;99.90
6581;DHT22;3324;50.796;7.228;2023-12-20T04:09:58;7.50;99.90
6581;DHT22;3324;50.796;7.228;2023-12-20T04:12:24;7.50;99.90
6581;DHT22;3324;50.796;7.228;2023-12-20T04:14:49;7.40;99.90
6581;DHT22;3324;50.796;7.228;2023-12-20T04:17:15;7.40;99.90
6581;DHT22;3324;50.796;7.228;2023-12-20T04:19:44;7.40;99.90
6581;DHT22;3324;50.796;7.228;2023-12-20T04:22:09;7.30;99.90
6581;DHT22;3324;50.796;7.228;2023-12-20T04:24:35;7.30;99.90
6581;DHT22;3324;50.796;7.228;2023-12-20T04:27:01;7.40;99.90
6581;DHT22;3324;50.796;7.228;2023-12-20T04:29:26;7.40;99.90
6581;DHT22;3324;50.796;7.228;2023-12-20T04:31:52;7.40;99.90
6581;DHT22;3324;50.796;7.228;2023-12-20T04:34:17;7.40;99.90
6581;DHT22;3324;50.796;7.228;2023-12-20T04:36:43;7.40;99.90
6581;DHT22;3324;50.796;7.228;2023-12-20T04:39:09;7.40;99.90
6581;DHT22;3324;50.796;7.228;2023-12-20T04:41:34;7.40;99.90
6581;DHT22;3324;50.796;7.228;2023-12-20T04:44:00;7.40;99.90
6581;DHT22;3324;50.796;7.228;2023-12-20T04:46:26;7.30;99.90
6581;DHT22;3324;50.796;7.228;2023-12-20T04:48:51;7.40;99.90
6581;DHT22;3324;50.796;7.228;2023-12-20T04:51:17;7.40;99.90
6581;DHT22;3324;50.796;7.228;2023-12-20T04:53:42;7.40;99.90
6581;DHT22;3324;50.796;7.228;2023-12-20T04:56:08;7.40;99.90
6581;DHT22;3324;50.796;7.228;2023-12-20T04:58:33;7.40;99.90
6581;DHT22;3324;50.796;7.228;2023-12-20T05:00:59;7.40;99.90
6581;DHT22;3324;50.796;7.228;2023-12-20T05:03:24;7.40;99.90
6581;DHT22;3324;50.796;7.228;2023-12-20T05:05:50;7.40;99.90
6581;DHT22;3324;50.796;7.228;2023-12-20T05:08:15;7.40;99.90
6581;DHT22;3324;50.796;7.228;2023-12-20T05:10:41;7.40;99.90
6581;DHT22;3324;50.796;7.228;2023-12-20T05:13:06;7.30;99.90
6581;DHT22;3324;50.796;7.228;2023-12-20T05:15:33;7.40;99.90
6581;DHT22;3324;50.796;7.228;2023-12-20T05:17:58;7.40;99.90
6581;DHT22;3324;50.796;7.228;2023-12-20T05:20:24;7.40;99.90
6581;DHT22;3324;50.796;7.228;2023-12-20T05:22:49;7.40;99.90
6581;DHT22;3324;50.796;7.228;2023-12-20T05:25:15;7.40;99.90
6581;DHT22;3324;50.796;7.228;2023-12-20T05:27:40;7.40;99.90
6581;DHT22;3324;50.796;7.228;2023-12-20T05:30:06;7.40;99.90
6581;DHT22;3324;50.796;7.228;2023-12-20T05:32:31;7.40;99.90
6581;DHT22;3324;50.796;7.228;2023-12-20T05:34:57;7.30;99.90
6581;DHT22;3324;50.796;7.228;2023-12-20T05:37:22;7.40;99.90
6581;DHT22;3324;50.796;7.228;2023-12-20T05:39:48;7.30;99.90
6581;DHT22;3324;50.796;7.228;2023-12-20T05:45:16;7.30;99.90
6581;DHT22;3324;50.796;7.228;2023-12-20T05:47:42;7.30;99.90
6581;DHT22;3324;50.796;7.228;2023-12-20T05:50:07;7.30;99.90
6581;DHT22;3324;50.796;7.228;2023-12-20T05:52:34;7.30;99.90
6581;DHT22;3324;50.796;7.228;2023-12-20T05:54:59;7.30;99.90
6581;DHT22;3324;50.796;7.228;2023-12-20T05:57:26;7.30;99.90
6581;DHT22;3324;50.796;7.228;2023-12-20T05:59:52;7.30;99.90
6581;DHT22;3324;50.796;7.228;2023-12-20T06:05:21;7.30;99.90
6581;DHT22;3324;50.796;7.228;2023-12-20T06:07:47;7.30;99.90
6581;DHT22;3324;50.796;7.228;2023-12-20T06:10:13;7.30;99.90
6581;DHT22;3324;50.796;7.228;2023-12-20T06:12:39;7.30;99.90
6581;DHT22;3324;50.796;7.228;2023-12-20T06:15:04;7.30;99.90
6581;DHT22;3324;50.796;7.228;2023-12-20T06:17:31;7.30;99.90
6581;DHT22;3324;50.796;7.228;2023-12-20T06:19:57;7.30;99.90
6581;DHT22;3324;50.796;7.228;2023-12-20T06:22:22;7.40;99.90
6581;DHT22;3324;50.796;7.228;2023-12-20T06:24:48;7.40;99.90
6581;DHT22;3324;50.796;7.228;2023-12-20T06:27:13;7.40;99.90
6581;DHT22;3324;50.796;7.228;2023-12-20T06:29:39;7.40;99.90
6581;DHT22;3324;50.796;7.228;2023-12-20T06:32:06;7.30;99.90
6581;DHT22;3324;50.796;7.228;2023-12-20T06:34:31;7.40;99.90
6581;DHT22;3324;50.796;7.228;2023-12-20T06:36:57;7.30;99.90
6581;DHT22;3324;50.796;7.228;2023-12-20T06:42:25;7.30;99.90
6581;DHT22;3324;50.796;7.228;2023-12-20T06:47:55;7.30;99.90
6581;DHT22;3324;50.796;7.228;2023-12-20T06:50:20;7.30;99.90
6581;DHT22;3324;50.796;7.228;2023-12-20T06:52:46;7.30;99.90
6581;DHT22;3324;50.796;7.228;2023-12-20T06:55:11;7.30;99.90
6581;DHT22;3324;50.796;7.228;2023-12-20T06:57:37;7.30;99.90
6581;DHT22;3324;50.796;7.228;2023-12-20T07:00:02;7.30;99.90
6581;DHT22;3324;50.796;7.228;2023-12-20T07:02:28;7.30;99.90
6581;DHT22;3324;50.796;7.228;2023-12-20T07:04:55;7.30;99.90
6581;DHT22;3324;50.796;7.228;2023-12-20T07:07:21;7.30;99.90
6581;DHT22;3324;50.796;7.228;2023-12-20T07:09:48;7.30;99.90
6581;DHT22;3324;50.796;7.228;2023-12-20T07:12:14;7.30;99.90
6581;DHT22;3324;50.796;7.228;2023-12-20T07:14:39;7.30;99.90
6581;DHT22;3324;50.796;7.228;2023-12-20T07:17:05;7.40;99.90
6581;DHT22;3324;50.796;7.228;2023-12-20T07:19:32;7.40;99.90
6581;DHT22;3324;50.796;7.228;2023-12-20T07:21:57;7.40;99.90
6581;DHT22;3324;50.796;7.228;2023-12-20T07:24:23;7.30;99.90
6581;DHT22;3324;50.796;7.228;2023-12-20T07:26:48;7.40;99.90
6581;DHT22;3324;50.796;7.228;2023-12-20T07:29:14;7.40;99.90
6581;DHT22;3324;50.796;7.228;2023-12-20T07:31:39;7.50;99.90
6581;DHT22;3324;50.796;7.228;2023-12-20T07:34:05;7.40;99.90
6581;DHT22;3324;50.796;7.228;2023-12-20T07:36:30;7.40;99.90
6581;DHT22;3324;50.796;7.228;2023-12-20T07:38:56;7.40;99.90
6581;DHT22;3324;50.796;7.228;2023-12-20T07:41:21;7.40;99.90
6581;DHT22;3324;50.796;7.228;2023-12-20T07:43:48;7.50;99.90
6581;DHT22;3324;50.796;7.228;2023-12-20T07:46:14;7.40;99.90
6581;DHT22;3324;50.796;7.228;2023-12-20T07:48:40;7.40;99.90
6581;DHT22;3324;50.796;7.228;2023-12-20T07:51:06;7.40;99.90
6581;DHT22;3324;50.796;7.228;2023-12-20T07:53:33;7.40;99.90
6581;DHT22;3324;50.796;7.228;2023-12-20T07:55:59;7.40;99.90
6581;DHT22;3324;50.796;7.228;2023-12-20T07:58:25;7.50;99.90
6581;DHT22;3324;50.796;7.228;2023-12-20T08:00:50;7.40;99.90
6581;DHT22;3324;50.796;7.228;2023-12-20T08:03:16;7.50;99.90
6581;DHT22;3324;50.796;7.228;2023-12-20T08:05:41;7.40;99.90
6581;DHT22;3324;50.796;7.228;2023-12-20T08:08:07;7.40;99.90
6581;DHT22;3324;50.796;7.228;2023-12-20T08:10:32;7.40;99.90
6581;DHT22;3324;50.796;7.228;2023-12-20T08:12:58;7.50;99.90
6581;DHT22;3324;50.796;7.228;2023-12-20T08:15:23;7.50;99.90
6581;DHT22;3324;50.796;7.228;2023-12-20T08:20:52;7.50;99.90
6581;DHT22;3324;50.796;7.228;2023-12-20T08:23:19;7.50;99.90
6581;DHT22;3324;50.796;7.228;2023-12-20T08:25:46;7.50;99.90
6581;DHT22;3324;50.796;7.228;2023-12-20T08:28:12;7.50;99.90
6581;DHT22;3324;50.796;7.228;2023-12-20T08:30:37;7.50;99.90
6581;DHT22;3324;50.796;7.228;2023-12-20T08:33:03;7.50;99.90
6581;DHT22;3324;50.796;7.228;2023-12-20T08:35:28;7.60;99.90
6581;DHT22;3324;50.796;7.228;2023-12-20T08:37:54;7.60;99.90
6581;DHT22;3324;50.796;7.228;2023-12-20T08:40:19;7.60;99.90
6581;DHT22;3324;50.796;7.228;2023-12-20T08:45:48;7.60;99.90
6581;DHT22;3324;50.796;7.228;2023-12-20T08:48:14;7.70;99.90
6581;DHT22;3324;50.796;7.228;2023-12-20T08:50:39;7.70;99.90
6581;DHT22;3324;50.796;7.228;2023-12-20T08:53:05;7.70;99.90
6581;DHT22;3324;50.796;7.228;2023-12-20T08:55:30;7.70;99.90
6581;DHT22;3324;50.796;7.228;2023-12-20T08:57:56;7.70;99.90
6581;DHT22;3324;50.796;7.228;2023-12-20T09:00:21;7.70;99.90
6581;DHT22;3324;50.796;7.228;2023-12-20T09:02:49;7.70;99.90
6581;DHT22;3324;50.796;7.228;2023-12-20T09:05:15;7.70;99.90
6581;DHT22;3324;50.796;7.228;2023-12-20T09:07:40;7.70;99.90
6581;DHT22;3324;50.796;7.228;2023-12-20T09:10:06;7.80;99.90
6581;DHT22;3324;50.796;7.228;2023-12-20T09:18:39;7.80;99.90
6581;DHT22;3324;50.796;7.228;2023-12-20T09:21:04;7.80;99.90
6581;DHT22;3324;50.796;7.228;2023-12-20T09:23:30;7.80;99.90
6581;DHT22;3324;50.796;7.228;2023-12-20T09:25:55;7.90;99.90
6581;DHT22;3324;50.796;7.228;2023-12-20T09:28:21;7.90;99.90
6581;DHT22;3324;50.796;7.228;2023-12-20T09:30:46;7.90;99.90
6581;DHT22;3324;50.796;7.228;2023-12-20T09:33:13;7.90;99.90
6581;DHT22;3324;50.796;7.228;2023-12-20T09:35:38;7.90;99.90
6581;DHT22;3324;50.796;7.228;2023-12-20T09:38:04;7.90;99.90
6581;DHT22;3324;50.796;7.228;2023-12-20T09:40:29;7.90;99.90
6581;DHT22;3324;50.796;7.228;2023-12-20T09:52:08;7.90;99.90
6581;DHT22;3324;50.796;7.228;2023-12-20T09:54:52;7.90;99.90
6581;DHT22;3324;50.796;7.228;2023-12-20T09:57:19;7.80;99.90
6581;DHT22;3324;50.796;7.228;2023-12-20T09:59:44;7.90;99.90
6581;DHT22;3324;50.796;7.228;2023-12-20T10:02:11;7.90;99.90
6581;DHT22;3324;50.796;7.228;2023-12-20T10:04:38;7.90;99.90
6581;DHT22;3324;50.796;7.228;2023-12-20T10:07:05;7.90;99.90
6581;DHT22;3324;50.796;7.228;2023-12-20T10:09:31;7.90;99.90
6581;DHT22;3324;50.796;7.228;2023-12-20T10:11:57;7.90;99.90
6581;DHT22;3324;50.796;7.228;2023-12-20T10:14:23;7.90;99.90
6581;DHT22;3324;50.796;7.228;2023-12-20T10:16:49;7.90;99.90
6581;DHT22;3324;50.796;7.228;2023-12-20T10:19:18;8.00;99.90
6581;DHT22;3324;50.796;7.228;2023-12-20T10:21:44;8.00;99.90
6581;DHT22;3324;50.796;7.228;2023-12-20T10:24:11;8.00;99.90
6581;DHT22;3324;50.796;7.228;2023-12-20T10:26:41;8.00;99.90
6581;DHT22;3324;50.796;7.228;2023-12-20T10:29:07;8.00;99.90
6581;DHT22;3324;50.796;7.228;2023-12-20T10:31:33;8.00;99.90
6581;DHT22;3324;50.796;7.228;2023-12-20T10:33:59;8.00;99.90
6581;DHT22;3324;50.796;7.228;2023-12-20T10:36:29;8.00;99.90
6581;DHT22;3324;50.796;7.228;2023-12-20T10:38:55;8.00;99.90
6581;DHT22;3324;50.796;7.228;2023-12-20T10:41:24;8.00;99.90
6581;DHT22;3324;50.796;7.228;2023-12-20T10:43:51;8.00;99.90
6581;DHT22;3324;50.796;7.228;2023-12-20T10:46:16;8.00;99.90
6581;DHT22;3324;50.796;7.228;2023-12-20T10:48:43;8.00;99.90
6581;DHT22;3324;50.796;7.228;2023-12-20T10:51:10;7.90;99.90
6581;DHT22;3324;50.796;7.228;2023-12-20T10:59:41;8.10;99.90
6581;DHT22;3324;50.796;7.228;2023-12-20T11:02:08;8.10;99.90
6581;DHT22;3324;50.796;7.228;2023-12-20T11:04:37;8.20;99.90
6581;DHT22;3324;50.796;7.228;2023-12-20T11:07:08;8.10;99.90
6581;DHT22;3324;50.796;7.228;2023-12-20T11:09:36;8.10;99.90
6581;DHT22;3324;50.796;7.228;2023-12-20T11:14:39;8.10;99.90
6581;DHT22;3324;50.796;7.228;2023-12-20T11:17:09;8.10;99.90
6581;DHT22;3324;50.796;7.228;2023-12-20T11:22:21;8.10;99.90
6581;DHT22;3324;50.796;7.228;2023-12-20T11:24:47;8.20;99.90
6581;DHT22;3324;50.796;7.228;2023-12-20T11:27:13;8.20;99.90
6581;DHT22;3324;50.796;7.228;2023-12-20T11:29:39;8.20;99.90
6581;DHT22;3324;50.796;7.228;2023-12-20T11:37:31;8.30;99.90
6581;DHT22;3324;50.796;7.228;2023-12-20T11:40:01;8.30;99.90
6581;DHT22;3324;50.796;7.228;2023-12-20T11:42:27;8.30;99.90
6581;DHT22;3324;50.796;7.228;2023-12-20T11:44:53;8.30;99.90
6581;DHT22;3324;50.796;7.228;2023-12-20T11:47:18;8.30;99.90
6581;DHT22;3324;50.796;7.228;2023-12-20T11:49:47;8.20;99.90
6581;DHT22;3324;50.796;7.228;2023-12-20T11:52:14;8.30;99.90
6581;DHT22;3324;50.796;7.228;2023-12-20T11:54:39;8.30;99.90
6581;DHT22;3324;50.796;7.228;2023-12-20T11:57:05;8.30;99.90
6581;DHT22;3324;50.796;7.228;2023-12-20T11:59:30;8.30;99.90
6581;DHT22;3324;50.796;7.228;2023-12-20T12:01:56;8.30;99.90
6581;DHT22;3324;50.796;7.228;2023-12-20T12:04:26;8.30;99.90
6581;DHT22;3324;50.796;7.228;2023-12-20T12:06:51;8.30;99.90
6581;DHT22;3324;50.796;7.228;2023-12-20T12:09:17;8.30;99.90
6581;DHT22;3324;50.796;7.228;2023-12-20T12:11:43;8.30;99.90
6581;DHT22;3324;50.796;7.228;2023-12-20T12:14:08;8.30;99.90
6581;DHT22;3324;50.796;7.228;2023-12-20T12:16:34;8.30;99.90
6581;DHT22;3324;50.796;7.228;2023-12-20T12:19:00;8.30;99.90
6581;DHT22;3324;50.796;7.228;2023-12-20T12:21:25;8.30;99.90
6581;DHT22;3324;50.796;7.228;2023-12-20T12:23:51;8.30;99.90
6581;DHT22;3324;50.796;7.228;2023-12-20T12:26:16;8.30;99.90
6581;DHT22;3324;50.796;7.228;2023-12-20T12:28:42;8.40;99.90
6581;DHT22;3324;50.796;7.228;2023-12-20T12:31:08;8.30;99.90
6581;DHT22;3324;50.796;7.228;2023-12-20T12:33:34;8.40;99.90
6581;DHT22;3324;50.796;7.228;2023-12-20T12:36:00;8.40;99.90
6581;DHT22;3324;50.796;7.228;2023-12-20T12:38:26;8.40;99.90
6581;DHT22;3324;50.796;7.228;2023-12-20T12:40:51;8.40;99.90
6581;DHT22;3324;50.796;7.228;2023-12-20T12:43:18;8.50;99.90
6581;DHT22;3324;50.796;7.228;2023-12-20T12:45:44;8.50;99.90
6581;DHT22;3324;50.796;7.228;2023-12-20T12:48:09;8.50;99.90
6581;DHT22;3324;50.796;7.228;2023-12-20T12:50:35;8.50;99.90
6581;DHT22;3324;50.796;7.228;2023-12-20T12:53:01;8.40;99.90
6581;DHT22;3324;50.796;7.228;2023-12-20T12:55:28;8.40;99.90
6581;DHT22;3324;50.796;7.228;2023-12-20T12:57:53;8.40;99.90
6581;DHT22;3324;50.796;7.228;2023-12-20T13:00:19;8.40;99.90
6581;DHT22;3324;50.796;7.228;2023-12-20T13:02:44;8.50;99.90
6581;DHT22;3324;50.796;7.228;2023-12-20T13:05:10;8.50;99.90
6581;DHT22;3324;50.796;7.228;2023-12-20T13:07:35;8.50;99.90
6581;DHT22;3324;50.796;7.228;2023-12-20T13:10:02;8.50;99.90
6581;DHT22;3324;50.796;7.228;2023-12-20T13:12:28;8.50;99.90
6581;DHT22;3324;50.796;7.228;2023-12-20T13:14:54;8.50;99.90
6581;DHT22;3324;50.796;7.228;2023-12-20T13:17:20;8.50;99.90
6581;DHT22;3324;50.796;7.228;2023-12-20T13:19:46;8.60;99.90
6581;DHT22;3324;50.796;7.228;2023-12-20T13:22:11;8.50;99.90
6581;DHT22;3324;50.796;7.228;2023-12-20T13:24:37;8.50;99.90
6581;DHT22;3324;50.796;7.228;2023-12-20T13:27:02;8.60;99.90
6581;DHT22;3324;50.796;7.228;2023-12-20T13:29:28;8.60;99.90
6581;DHT22;3324;50.796;7.228;2023-12-20T13:31:53;8.60;99.90
6581;DHT22;3324;50.796;7.228;2023-12-20T13:34:19;8.50;99.90
6581;DHT22;3324;50.796;7.228;2023-12-20T13:36:45;8.50;99.90
6581;DHT22;3324;50.796;7.228;2023-12-20T13:39:15;8.50;99.90
6581;DHT22;3324;50.796;7.228;2023-12-20T13:41:40;8.40;99.90
6581;DHT22;3324;50.796;7.228;2023-12-20T13:44:06;8.40;99.90
6581;DHT22;3324;50.796;7.228;2023-12-20T13:46:31;8.40;99.90
6581;DHT22;3324;50.796;7.228;2023-12-20T13:48:57;8.30;99.90
6581;DHT22;3324;50.796;7.228;2023-12-20T13:51:22;8.40;99.90
6581;DHT22;3324;50.796;7.228;2023-12-20T13:53:48;8.30;99.90
6581;DHT22;3324;50.796;7.228;2023-12-20T13:56:14;8.20;99.90
6581;DHT22;3324;50.796;7.228;2023-12-20T13:58:39;8.20;99.90
6581;DHT22;3324;50.796;7.228;2023-12-20T14:01:07;8.20;99.90
6581;DHT22;3324;50.796;7.228;2023-12-20T14:03:33;8.20;99.90
6581;DHT22;3324;50.796;7.228;2023-12-20T14:05:59;8.20;99.90
6581;DHT22;3324;50.796;7.228;2023-12-20T14:08:25;8.20;99.90
6581;DHT22;3324;50.796;7.228;2023-12-20T14:10:52;8.20;99.90
6581;DHT22;3324;50.796;7.228;2023-12-20T14:13:17;8.20;99.90
6581;DHT22;3324;50.796;7.228;2023-12-20T14:15:43;8.20;99.90
6581;DHT22;3324;50.796;7.228;2023-12-20T14:18:09;8.20;99.90
6581;DHT22;3324;50.796;7.228;2023-12-20T14:20:35;8.20;99.90
6581;DHT22;3324;50.796;7.228;2023-12-20T14:23:01;8.20;99.90
6581;DHT22;3324;50.796;7.228;2023-12-20T14:25:27;8.20;99.90
6581;DHT22;3324;50.796;7.228;2023-12-20T14:27:52;8.10;99.90
6581;DHT22;3324;50.796;7.228;2023-12-20T14:30:17;8.20;99.90
6581;DHT22;3324;50.796;7.228;2023-12-20T14:32:43;8.20;99.90
6581;DHT22;3324;50.796;7.228;2023-12-20T14:35:09;8.20;99.90
6581;DHT22;3324;50.796;7.228;2023-12-20T14:37:35;8.20;99.90
6581;DHT22;3324;50.796;7.228;2023-12-20T14:40:00;8.10;99.90
6581;DHT22;3324;50.796;7.228;2023-12-20T14:42:26;8.10;99.90
6581;DHT22;3324;50.796;7.228;2023-12-20T14:44:51;8.10;99.90
6581;DHT22;3324;50.796;7.228;2023-12-20T14:47:19;8.10;99.90
6581;DHT22;3324;50.796;7.228;2023-12-20T14:49:45;8.10;99.90
6581;DHT22;3324;50.796;7.228;2023-12-20T14:52:13;8.10;99.90
6581;DHT22;3324;50.796;7.228;2023-12-20T14:54:38;8.10;99.90
6581;DHT22;3324;50.796;7.228;2023-12-20T14:57:04;8.10;99.90
6581;DHT22;3324;50.796;7.228;2023-12-20T14:59:29;8.10;99.90
6581;DHT22;3324;50.796;7.228;2023-12-20T15:01:55;8.10;99.90
6581;DHT22;3324;50.796;7.228;2023-12-20T15:04:20;8.10;99.90
6581;DHT22;3324;50.796;7.228;2023-12-20T15:06:53;8.10;99.90
6581;DHT22;3324;50.796;7.228;2023-12-20T15:09:19;8.10;99.90
6581;DHT22;3324;50.796;7.228;2023-12-20T15:11:44;8.20;99.90
6581;DHT22;3324;50.796;7.228;2023-12-20T15:14:10;8.20;99.90
6581;DHT22;3324;50.796;7.228;2023-12-20T15:16:35;8.20;99.90
6581;DHT22;3324;50.796;7.228;2023-12-20T15:19:01;8.20;99.90
6581;DHT22;3324;50.796;7.228;2023-12-20T15:21:26;8.10;99.90
6581;DHT22;3324;50.796;7.228;2023-12-20T15:23:57;8.20;99.90
6581;DHT22;3324;50.796;7.228;2023-12-20T15:26:33;8.20;99.90
6581;DHT22;3324;50.796;7.228;2023-12-20T15:28:59;8.20;99.90
6581;DHT22;3324;50.796;7.228;2023-12-20T15:31:26;8.20;99.90
6581;DHT22;3324;50.796;7.228;2023-12-20T15:33:52;8.20;99.90
6581;DHT22;3324;50.796;7.228;2023-12-20T15:36:18;8.20;99.90
6581;DHT22;3324;50.796;7.228;2023-12-20T15:38:44;8.20;99.90
6581;DHT22;3324;50.796;7.228;2023-12-20T15:41:09;8.20;99.90
6581;DHT22;3324;50.796;7.228;2023-12-20T15:43:41;8.20;99.90
6581;DHT22;3324;50.796;7.228;2023-12-20T15:46:09;8.20;99.90
6581;DHT22;3324;50.796;7.228;2023-12-20T15:48:34;8.20;99.90
6581;DHT22;3324;50.796;7.228;2023-12-20T15:51:04;8.20;99.90
6581;DHT22;3324;50.796;7.228;2023-12-20T15:53:29;8.20;99.90
6581;DHT22;3324;50.796;7.228;2023-12-20T15:55:55;8.20;99.90
6581;DHT22;3324;50.796;7.228;2023-12-20T15:58:20;8.30;99.90
6581;DHT22;3324;50.796;7.228;2023-12-20T16:00:45;8.20;99.90
6581;DHT22;3324;50.796;7.228;2023-12-20T16:03:11;8.20;99.90
6581;DHT22;3324;50.796;7.228;2023-12-20T16:05:36;8.30;99.90
6581;DHT22;3324;50.796;7.228;2023-12-20T16:08:02;8.30;99.90
6581;DHT22;3324;50.796;7.228;2023-12-20T16:10:27;8.40;99.90
6581;DHT22;3324;50.796;7.228;2023-12-20T16:12:53;8.40;99.90
6581;DHT22;3324;50.796;7.228;2023-12-20T16:15:18;8.40;99.90
6581;DHT22;3324;50.796;7.228;2023-12-20T16:17:44;8.40;99.90
6581;DHT22;3324;50.796;7.228;2023-12-20T16:20:09;8.40;99.90
6581;DHT22;3324;50.796;7.228;2023-12-20T16:22:35;8.50;99.90
6581;DHT22;3324;50.796;7.228;2023-12-20T16:25:01;8.50;99.90
6581;DHT22;3324;50.796;7.228;2023-12-20T16:27:26;8.50;99.90
6581;DHT22;3324;50.796;7.228;2023-12-20T16:29:51;8.50;99.90
6581;DHT22;3324;50.796;7.228;2023-12-20T16:32:17;8.40;99.90
6581;DHT22;3324;50.796;7.228;2023-12-20T16:34:43;8.50;99.90
6581;DHT22;3324;50.796;7.228;2023-12-20T16:37:10;8.50;99.90
6581;DHT22;3324;50.796;7.228;2023-12-20T16:39:35;8.50;99.90
6581;DHT22;3324;50.796;7.228;2023-12-20T16:42:01;8.50;99.90
6581;DHT22;3324;50.796;7.228;2023-12-20T16:44:26;8.60;99.90
6581;DHT22;3324;50.796;7.228;2023-12-20T16:46:52;8.50;99.90
6581;DHT22;3324;50.796;7.228;2023-12-20T16:49:18;8.50;99.90
6581;DHT22;3324;50.796;7.228;2023-12-20T16:51:44;8.50;99.90
6581;DHT22;3324;50.796;7.228;2023-12-20T16:54:09;8.50;99.90
6581;DHT22;3324;50.796;7.228;2023-12-20T16:56:35;8.40;99.90
6581;DHT22;3324;50.796;7.228;2023-12-20T16:59:00;8.50;99.90
6581;DHT22;3324;50.796;7.228;2023-12-20T17:01:26;8.60;99.90